Time;durP1;ratioP1;P1;durP2;ratioP2;P2;SDS_P1;SDS_P2;PMS_P1;PMS_P2;Temp;Humidity;BMP_temperature;BMP_pressure;BME280_temperature;BME280_humidity;BME280_pressure;Samples;Min_cycle;Max_cycle;Signal;HPM_P1;HPM_P2
2024/01/02 00:00:22;;;;;;;11.77;2.20;;;;;;;5.88;100.00;98226.91;4998696;28;20049;-69
2024/01/02 00:02:49;;;;;;;12.43;2.75;;;;;;;5.89;100.00;98207.78;5006568;28;20076;-69
2024/01/02 00:05:15;;;;;;;12.02;2.28;;;;;;;5.93;100.00;98216.22;4995082;28;20209;-69
2024/01/02 00:07:42;;;;;;;17.95;3.28;;;;;;;6.00;100.00;98217.59;5007230;28;20045;-69
2024/01/02 00:10:09;;;;;;;14.55;2.70;;;;;;;5.97;100.00;98199.59;5001171;28;20049;-70
2024/01/02 00:12:36;;;;;;;11.52;2.72;;;;;;;6.07;100.00;98207.66;5002067;28;20078;-69
2024/01/02 00:15:03;;;;;;;19.98;3.17;;;;;;;6.10;100.00;98202.28;4989620;28;20368;-69
2024/01/02 00:17:30;;;;;;;12.88;3.38;;;;;;;6.00;100.00;98201.16;4997767;28;20050;-69
2024/01/02 00:19:57;;;;;;;11.82;2.15;;;;;;;6.09;100.00;98195.41;4997138;28;20813;-69
2024/01/02 00:22:24;;;;;;;14.80;2.97;;;;;;;6.08;100.00;98194.59;4988657;28;20054;-69
2024/01/02 00:24:50;;;;;;;15.32;2.90;;;;;;;6.13;100.00;98186.53;4995036;28;20053;-69
2024/01/02 00:27:17;;;;;;;16.80;2.78;;;;;;;6.14;100.00;98176.97;4997188;28;20484;-69
2024/01/02 00:29:44;;;;;;;10.48;2.15;;;;;;;6.24;100.00;98176.31;4999955;28;20053;-69
2024/01/02 00:32:10;;;;;;;12.38;2.13;;;;;;;6.26;100.00;98173.63;5010953;28;20451;-69
2024/01/02 00:34:38;;;;;;;14.93;3.13;;;;;;;6.27;100.00;98172.72;4999656;28;20081;-69
2024/01/02 00:37:04;;;;;;;17.02;2.60;;;;;;;6.31;100.00;98156.00;5005958;28;20073;-70
2024/01/02 00:39:31;;;;;;;17.02;2.75;;;;;;;6.33;100.00;98154.13;5008711;28;20049;-69
2024/01/02 00:41:58;;;;;;;15.32;2.40;;;;;;;6.31;100.00;98149.97;4998741;28;20042;-69
2024/01/02 00:44:24;;;;;;;14.88;2.83;;;;;;;6.35;100.00;98149.66;4980823;28;20054;-69
2024/01/02 00:46:51;;;;;;;16.23;2.70;;;;;;;6.29;100.00;98150.06;4994409;28;20559;-69
2024/01/02 00:49:18;;;;;;;9.93;3.03;;;;;;;6.35;100.00;98134.06;5009048;28;20057;-69
2024/01/02 00:51:45;;;;;;;12.65;2.35;;;;;;;6.26;100.00;98129.44;5008971;28;20054;-69
2024/01/02 00:54:12;;;;;;;13.93;2.38;;;;;;;6.35;100.00;98128.88;4995795;28;20484;-70
2024/01/02 00:56:38;;;;;;;15.45;2.63;;;;;;;6.42;100.00;98124.97;4995386;28;20480;-69
2024/01/02 00:59:05;;;;;;;11.13;2.55;;;;;;;6.44;100.00;98114.47;5006683;28;20092;-69
2024/01/02 01:01:32;;;;;;;13.95;2.60;;;;;;;6.51;100.00;98125.31;4999509;28;20130;-69
2024/01/02 01:03:59;;;;;;;13.65;2.58;;;;;;;6.27;100.00;98092.97;4997309;28;20053;-69
2024/01/02 01:06:25;;;;;;;14.45;2.45;;;;;;;6.54;100.00;98104.34;4998758;28;20062;-70
2024/01/02 01:08:52;;;;;;;13.85;3.20;;;;;;;6.62;100.00;98107.28;5016214;28;20049;-68
2024/01/02 01:11:20;;;;;;;10.40;2.20;;;;;;;6.58;100.00;98108.41;4998710;28;20056;-69
2024/01/02 01:13:46;;;;;;;15.35;2.80;;;;;;;6.49;100.00;98107.22;4991427;28;20471;-68
2024/01/02 01:16:13;;;;;;;18.00;3.03;;;;;;;6.49;100.00;98103.81;5006528;28;20053;-69
2024/01/02 01:18:40;;;;;;;10.57;2.58;;;;;;;6.79;100.00;98094.03;4997880;28;20054;-69
2024/01/02 01:21:07;;;;;;;10.68;2.25;;;;;;;6.51;100.00;98094.13;5005332;28;20085;-69
2024/01/02 01:23:34;;;;;;;14.52;2.42;;;;;;;6.54;100.00;98081.78;4996958;28;20051;-69
2024/01/02 01:26:01;;;;;;;12.90;2.25;;;;;;;6.65;100.00;98087.13;5001336;28;20053;-69
2024/01/02 01:28:29;;;;;;;12.60;2.83;;;;;;;6.72;100.00;98068.53;4994529;28;20042;-69
2024/01/02 01:30:55;;;;;;;15.27;3.38;;;;;;;6.60;100.00;98063.16;5010214;28;20049;-68
2024/01/02 01:33:22;;;;;;;13.10;3.00;;;;;;;6.51;100.00;98070.75;4995284;28;20054;-69
2024/01/02 01:35:49;;;;;;;16.23;3.30;;;;;;;6.48;100.00;98063.97;5000460;28;20484;-68
2024/01/02 01:38:16;;;;;;;11.52;2.63;;;;;;;6.55;100.00;98077.41;4998513;28;20057;-68
2024/01/02 01:40:42;;;;;;;18.90;3.70;;;;;;;6.64;100.00;98063.84;5004021;28;20464;-69
2024/01/02 01:43:13;;;;;;;10.82;3.10;;;;;;;6.82;100.00;98067.00;4995536;28;20042;-69
2024/01/02 01:45:40;;;;;;;12.57;2.58;;;;;;;6.77;100.00;98037.88;4997461;28;20128;-68
2024/01/02 01:48:09;;;;;;;11.43;3.20;;;;;;;6.73;100.00;98049.38;4991687;28;20061;-69
2024/01/02 01:50:37;;;;;;;17.20;3.28;;;;;;;6.82;100.00;98048.81;5005421;28;20045;-69
2024/01/02 01:53:06;;;;;;;17.20;3.45;;;;;;;6.84;100.00;98044.34;5016358;28;20133;-69
2024/01/02 01:55:34;;;;;;;16.88;3.55;;;;;;;6.70;100.00;98029.63;5005846;28;20097;-69
2024/01/02 01:58:01;;;;;;;19.98;4.93;;;;;;;6.94;100.00;98037.59;5011652;28;20046;-69
2024/01/02 02:00:29;;;;;;;30.48;4.60;;;;;;;6.89;100.00;98033.63;5014484;28;20049;-68
2024/01/02 02:02:57;;;;;;;15.52;4.82;;;;;;;6.94;100.00;98026.34;5012331;28;20133;-68
2024/01/02 02:05:28;;;;;;;13.10;2.78;;;;;;;6.83;100.00;98027.06;5008618;28;20471;-68
2024/01/02 02:07:55;;;;;;;30.63;7.82;;;;;;;6.75;100.00;98008.53;5003528;28;20040;-68
2024/01/02 02:10:22;;;;;;;12.00;2.85;;;;;;;6.80;100.00;98011.66;5007174;28;20046;-68
2024/01/02 02:12:50;;;;;;;14.13;2.92;;;;;;;6.79;100.00;98002.19;5002093;28;20396;-68
2024/01/02 02:15:17;;;;;;;19.30;2.78;;;;;;;6.75;100.00;97998.97;5011825;28;20127;-69
2024/01/02 02:17:44;;;;;;;10.60;2.65;;;;;;;6.91;100.00;97992.75;4997379;28;20090;-68
2024/01/02 02:20:12;;;;;;;19.60;3.03;;;;;;;6.83;100.00;97988.03;4999726;28;20049;-68
2024/01/02 02:22:43;;;;;;;16.33;3.22;;;;;;;6.94;100.00;98000.31;4983644;28;20137;-68
2024/01/02 02:25:10;;;;;;;16.02;3.15;;;;;;;6.92;100.00;97994.41;5000945;28;20082;-68
2024/01/02 02:27:37;;;;;;;18.80;2.70;;;;;;;6.99;100.00;97993.91;4992768;28;20485;-68
2024/01/02 02:30:04;;;;;;;11.05;3.10;;;;;;;6.87;100.00;97973.91;4994577;28;20049;-68
2024/01/02 02:32:30;;;;;;;13.50;2.97;;;;;;;6.96;100.00;97981.09;5011338;28;20042;-68
2024/01/02 02:34:57;;;;;;;13.00;2.80;;;;;;;7.04;100.00;97986.59;5003707;28;20050;-69
2024/01/02 02:37:24;;;;;;;15.48;3.53;;;;;;;7.02;100.00;97972.03;4989153;28;20053;-69
2024/01/02 02:39:51;;;;;;;12.10;3.55;;;;;;;7.04;100.00;97970.16;5010711;28;20077;-68
2024/01/02 02:42:17;;;;;;;12.63;2.75;;;;;;;7.22;100.00;97970.69;5009701;28;20389;-68
2024/01/02 02:44:44;;;;;;;13.15;3.35;;;;;;;7.00;100.00;97973.94;5008839;28;20046;-69
2024/01/02 02:47:11;;;;;;;17.70;4.15;;;;;;;7.08;100.00;97971.63;4992167;28;20062;-69
2024/01/02 02:49:38;;;;;;;12.50;2.88;;;;;;;7.03;100.00;97958.94;5003557;28;20133;-69
2024/01/02 02:52:05;;;;;;;15.02;4.65;;;;;;;6.92;100.00;97953.59;5007936;28;20056;-69
2024/01/02 02:54:32;;;;;;;14.02;3.22;;;;;;;6.84;100.00;97919.50;5011598;28;20747;-69
2024/01/02 02:56:59;;;;;;;11.90;2.92;;;;;;;7.11;100.00;97958.41;5008408;28;20046;-69
2024/01/02 02:59:26;;;;;;;16.92;2.88;;;;;;;7.05;100.00;97935.44;5009730;28;20061;-69
2024/01/02 03:01:52;;;;;;;15.05;2.90;;;;;;;7.06;100.00;97934.47;5003808;28;20458;-69
2024/01/02 03:04:19;;;;;;;19.08;3.50;;;;;;;7.06;100.00;97955.28;4993638;28;20116;-69
2024/01/02 03:06:46;;;;;;;15.57;3.20;;;;;;;7.17;100.00;97933.75;4999498;28;20057;-69
2024/01/02 03:09:12;;;;;;;17.08;2.83;;;;;;;7.13;100.00;97935.72;4999924;28;20480;-69
2024/01/02 03:11:39;;;;;;;15.90;3.00;;;;;;;7.01;100.00;97920.94;5003023;28;20468;-69
2024/01/02 03:14:06;;;;;;;14.15;3.10;;;;;;;6.99;100.00;97909.81;4984280;28;20054;-69
2024/01/02 03:16:34;;;;;;;14.25;2.80;;;;;;;7.13;100.00;97932.28;5004372;28;20518;-69
2024/01/02 03:19:01;;;;;;;24.38;3.58;;;;;;;6.98;100.00;97919.41;4994668;28;20045;-69
2024/01/02 03:21:28;;;;;;;15.15;3.33;;;;;;;7.11;100.00;97908.97;5001475;28;20055;-69
2024/01/02 03:23:56;;;;;;;20.05;3.47;;;;;;;7.30;100.00;97920.75;5004671;28;20042;-69
2024/01/02 03:26:22;;;;;;;14.70;3.22;;;;;;;7.25;100.00;97904.59;5003174;28;20396;-69
2024/01/02 03:28:50;;;;;;;15.60;3.33;;;;;;;7.07;100.00;97912.72;5006289;28;20136;-69
2024/01/02 03:31:17;;;;;;;13.20;2.75;;;;;;;7.28;100.00;97901.78;4995340;28;20077;-69
2024/01/02 03:33:43;;;;;;;16.73;3.35;;;;;;;7.12;100.00;97897.66;5009121;28;20053;-69
2024/01/02 03:36:19;;;;;;;17.85;4.13;;;;;;;7.09;100.00;97886.63;4998467;28;20050;-69
2024/01/02 03:38:47;;;;;;;13.27;2.83;;;;;;;7.33;100.00;97886.66;5016527;28;20052;-69
2024/01/02 03:41:14;;;;;;;16.10;2.92;;;;;;;7.39;100.00;97894.88;5008844;28;20064;-69
2024/01/02 03:43:41;;;;;;;18.55;3.67;;;;;;;7.32;100.00;97887.63;5009698;28;20141;-69
2024/01/02 03:46:08;;;;;;;26.92;4.63;;;;;;;7.27;100.00;97884.50;5004655;28;20076;-69
2024/01/02 03:48:35;;;;;;;17.13;2.88;;;;;;;7.23;100.00;97883.88;4982225;28;20529;-69
2024/01/02 03:51:02;;;;;;;18.52;2.95;;;;;;;7.14;100.00;97871.53;5003974;28;20046;-69
2024/01/02 03:53:29;;;;;;;16.50;3.00;;;;;;;7.37;100.00;97878.56;4990985;28;20054;-69
2024/01/02 03:55:56;;;;;;;11.40;2.72;;;;;;;7.37;100.00;97872.53;4994262;28;20045;-68
2024/01/02 03:58:24;;;;;;;17.85;2.90;;;;;;;7.36;100.00;97868.25;4991149;28;20421;-67
2024/01/02 04:00:51;;;;;;;30.27;5.30;;;;;;;7.39;100.00;97868.84;5008294;28;20050;-70
2024/01/02 04:03:18;;;;;;;14.00;3.05;;;;;;;7.36;100.00;97845.63;4996725;28;20077;-68
2024/01/02 04:05:45;;;;;;;22.10;4.13;;;;;;;7.60;100.00;97847.47;5005334;28;20056;-68
2024/01/02 04:08:12;;;;;;;17.35;2.90;;;;;;;7.32;100.00;97843.38;5000528;28;20053;-68
2024/01/02 04:10:39;;;;;;;20.45;3.38;;;;;;;7.21;100.00;97839.75;5005503;28;20092;-68
2024/01/02 04:13:06;;;;;;;15.63;3.00;;;;;;;7.31;100.00;97834.75;5011040;28;20514;-69
2024/01/02 04:15:33;;;;;;;19.40;3.38;;;;;;;7.27;100.00;97856.69;4989422;28;20058;-72
2024/01/02 04:18:00;;;;;;;18.05;3.38;;;;;;;7.41;100.00;97837.50;4993051;28;20046;-68
2024/01/02 04:20:27;;;;;;;17.23;3.47;;;;;;;7.36;100.00;97824.81;4999100;28;20411;-69
2024/01/02 04:22:54;;;;;;;20.05;3.88;;;;;;;7.46;100.00;97822.41;4992306;28;20420;-68
2024/01/02 04:25:21;;;;;;;20.38;3.75;;;;;;;7.57;100.00;97826.84;4991925;28;20054;-68
2024/01/02 04:27:54;;;;;;;21.92;4.07;;;;;;;7.48;100.00;97823.13;5000180;28;20048;-68
2024/01/02 04:30:22;;;;;;;18.75;3.72;;;;;;;7.41;100.00;97827.09;5007643;28;20403;-68
2024/01/02 04:32:49;;;;;;;25.80;4.53;;;;;;;7.52;100.00;97827.16;5009206;28;20104;-68
2024/01/02 04:35:16;;;;;;;20.95;3.80;;;;;;;7.37;100.00;97823.88;5011996;28;20068;-69
2024/01/02 04:37:43;;;;;;;16.98;3.85;;;;;;;7.46;100.00;97826.78;4998606;28;20058;-68
2024/01/02 04:40:11;;;;;;;23.05;4.28;;;;;;;7.40;100.00;97831.47;4989842;28;20064;-68
2024/01/02 04:42:38;;;;;;;17.70;3.55;;;;;;;7.51;100.00;97816.88;5008374;28;20133;-68
2024/01/02 04:45:06;;;;;;;16.65;3.83;;;;;;;7.49;100.00;97823.94;5001036;28;20064;-68
2024/01/02 04:47:33;;;;;;;17.48;3.53;;;;;;;7.63;100.00;97805.56;5022372;28;20046;-68
2024/01/02 04:50:00;;;;;;;19.85;3.30;;;;;;;7.68;100.00;97800.03;5015362;28;20420;-68
2024/01/02 04:52:27;;;;;;;16.60;3.30;;;;;;;7.54;100.00;97801.88;5001396;28;20089;-68
2024/01/02 04:54:53;;;;;;;18.95;3.25;;;;;;;7.37;100.00;97774.44;4992896;28;20217;-68
2024/01/02 04:57:20;;;;;;;15.20;3.63;;;;;;;7.25;100.00;97764.06;5003723;28;20064;-71
2024/01/02 04:59:49;;;;;;;17.85;4.20;;;;;;;7.46;100.00;97798.97;5002919;28;20408;-68
2024/01/02 05:02:22;;;;;;;19.50;4.22;;;;;;;7.46;100.00;97787.75;5022273;28;20064;-69
2024/01/02 05:04:50;;;;;;;18.10;3.60;;;;;;;7.40;100.00;97788.97;5007249;28;20140;-68
2024/01/02 05:07:17;;;;;;;20.48;4.22;;;;;;;7.37;100.00;97778.81;5024067;28;20053;-69
2024/01/02 05:09:44;;;;;;;16.80;3.75;;;;;;;7.43;100.00;97783.56;5009279;28;20052;-68
2024/01/02 05:12:11;;;;;;;21.25;3.63;;;;;;;7.40;100.00;97786.38;4990838;28;20069;-68
2024/01/02 05:14:38;;;;;;;14.95;3.17;;;;;;;7.18;100.00;97753.25;4994457;28;20128;-68
2024/01/02 05:17:08;;;;;;;18.95;3.95;;;;;;;7.46;100.00;97772.13;5019225;28;20658;-68
2024/01/02 05:19:35;;;;;;;23.17;5.63;;;;;;;7.32;100.00;97786.13;5013786;28;20135;-68
2024/01/02 05:22:03;;;;;;;16.90;4.25;;;;;;;7.33;100.00;97777.34;5006147;28;20492;-68
2024/01/02 05:24:31;;;;;;;22.08;4.13;;;;;;;7.46;100.00;97778.16;5010530;28;20407;-68
2024/01/02 05:26:58;;;;;;;25.08;4.55;;;;;;;7.37;100.00;97771.81;5009268;28;20085;-68
2024/01/02 05:29:25;;;;;;;22.58;3.90;;;;;;;7.41;100.00;97767.22;5001334;28;20415;-68
2024/01/02 05:31:52;;;;;;;18.80;3.83;;;;;;;7.34;100.00;97738.19;5003922;28;20046;-68
2024/01/02 05:34:19;;;;;;;17.48;3.40;;;;;;;7.40;100.00;97749.94;5005115;28;20160;-69
2024/01/02 05:36:46;;;;;;;17.83;3.97;;;;;;;7.50;100.00;97750.13;5016034;28;20088;-69
2024/01/02 05:39:13;;;;;;;21.33;3.88;;;;;;;7.52;100.00;97756.03;5016882;28;20475;-69
2024/01/02 05:41:40;;;;;;;25.83;4.43;;;;;;;7.50;100.00;97758.75;5009812;28;20487;-68
2024/01/02 05:44:08;;;;;;;34.67;6.88;;;;;;;7.40;100.00;97755.16;5002339;28;20132;-68
2024/01/02 05:46:35;;;;;;;19.15;4.00;;;;;;;6.97;100.00;97740.00;5001895;28;20054;-68
2024/01/02 05:49:02;;;;;;;28.35;4.43;;;;;;;7.14;100.00;97744.03;5022992;28;20056;-68
2024/01/02 05:51:29;;;;;;;14.18;4.38;;;;;;;7.20;100.00;97756.59;5020730;28;20049;-68
2024/01/02 05:53:56;;;;;;;26.00;6.03;;;;;;;7.20;100.00;97752.19;5018809;28;20045;-68
2024/01/02 05:56:22;;;;;;;21.00;4.18;;;;;;;7.11;100.00;97757.25;5009733;28;20046;-68
2024/01/02 05:58:49;;;;;;;20.48;4.03;;;;;;;7.10;100.00;97747.75;5020729;28;20045;-68
2024/01/02 06:01:16;;;;;;;25.77;5.00;;;;;;;7.17;100.00;97747.25;5013440;28;20057;-69
2024/01/02 06:03:43;;;;;;;20.35;4.28;;;;;;;7.28;100.00;97733.47;5013175;28;20046;-69
2024/01/02 06:06:10;;;;;;;19.95;4.90;;;;;;;7.08;100.00;97731.44;5007009;28;20068;-68
2024/01/02 06:08:41;;;;;;;23.15;4.35;;;;;;;7.24;100.00;97750.22;5017886;28;20557;-69
2024/01/02 06:11:10;;;;;;;21.17;4.75;;;;;;;7.10;100.00;97733.00;5017442;28;20486;-69
2024/01/02 06:13:37;;;;;;;23.55;4.40;;;;;;;7.09;100.00;97736.53;5024662;28;20558;-68
2024/01/02 06:16:04;;;;;;;18.77;4.00;;;;;;;7.11;100.00;97737.25;5031887;28;20403;-68
2024/01/02 06:18:31;;;;;;;17.48;4.07;;;;;;;7.04;100.00;97723.03;5031409;28;20059;-68
2024/01/02 06:20:58;;;;;;;17.70;3.55;;;;;;;7.15;100.00;97711.84;5013479;28;20411;-68
2024/01/02 06:23:26;;;;;;;23.55;5.55;;;;;;;7.24;100.00;97726.78;5012589;28;20459;-68
2024/01/02 06:25:53;;;;;;;28.60;4.47;;;;;;;7.03;100.00;97726.56;5027113;28;20499;-68
2024/01/02 06:28:20;;;;;;;25.88;4.68;;;;;;;7.17;100.00;97725.56;5024458;28;20082;-68
2024/01/02 06:30:46;;;;;;;31.73;5.47;;;;;;;7.21;100.00;97734.84;5018906;28;20058;-68
2024/01/02 06:33:13;;;;;;;27.27;4.35;;;;;;;7.01;100.00;97716.28;5024566;28;20054;-68
2024/01/02 06:35:40;;;;;;;24.80;4.55;;;;;;;7.02;100.00;97722.31;5023676;28;20049;-68
2024/01/02 06:38:08;;;;;;;27.38;4.63;;;;;;;7.15;100.00;97722.25;5013086;28;20041;-68
2024/01/02 06:40:36;;;;;;;23.35;5.22;;;;;;;7.04;100.00;97707.41;5005266;28;20050;-69
2024/01/02 06:43:04;;;;;;;21.38;4.55;;;;;;;7.14;100.00;97724.03;5011294;28;20046;-68
2024/01/02 06:45:34;;;;;;;19.13;3.65;;;;;;;7.01;100.00;97724.09;5011239;28;20058;-68
2024/01/02 06:48:00;;;;;;;16.58;4.05;;;;;;;7.00;100.00;97714.59;5024830;28;20549;-69
2024/01/02 06:50:27;;;;;;;21.83;5.63;;;;;;;7.00;100.00;97721.59;5014258;28;20053;-69
2024/01/02 06:52:54;;;;;;;20.98;3.90;;;;;;;7.21;100.00;97720.03;5010982;28;20478;-69
2024/01/02 06:55:21;;;;;;;32.15;4.93;;;;;;;7.09;100.00;97707.91;5003576;28;20132;-69
2024/01/02 06:57:48;;;;;;;27.90;6.25;;;;;;;7.00;100.00;97727.59;5019676;28;20049;-68
2024/01/02 07:00:14;;;;;;;21.48;3.95;;;;;;;6.97;100.00;97691.41;5008619;28;20050;-69
2024/01/02 07:02:43;;;;;;;20.50;4.93;;;;;;;7.13;100.00;97713.72;5008509;28;20053;-67
2024/01/02 07:05:14;;;;;;;26.42;5.82;;;;;;;6.78;100.00;97706.66;5011173;28;20060;-67
2024/01/02 07:07:41;;;;;;;17.48;3.95;;;;;;;7.09;100.00;97702.72;4997910;28;20041;-68
2024/01/02 07:10:08;;;;;;;18.75;5.10;;;;;;;7.09;100.00;97712.28;5021542;28;20053;-68
2024/01/02 07:12:34;;;;;;;18.65;3.70;;;;;;;7.13;100.00;97700.72;5012231;28;20049;-69
2024/01/02 07:15:06;;;;;;;16.98;3.40;;;;;;;6.96;100.00;97704.53;4999839;28;20058;-69
2024/01/02 07:17:33;;;;;;;19.00;4.90;;;;;;;6.99;100.00;97696.50;4997771;28;20052;-68
2024/01/02 07:20:00;;;;;;;15.82;3.05;;;;;;;7.01;100.00;97713.69;5011574;28;20323;-68
2024/01/02 07:22:27;;;;;;;22.52;4.00;;;;;;;7.04;100.00;97705.63;5025572;28;20065;-69
2024/01/02 07:24:54;;;;;;;21.80;3.90;;;;;;;6.94;100.00;97693.41;5022746;28;20046;-69
2024/01/02 07:27:21;;;;;;;20.52;4.25;;;;;;;6.86;100.00;97698.31;4999540;28;20077;-69
2024/01/02 07:29:48;;;;;;;20.08;3.90;;;;;;;6.89;100.00;97706.75;5012899;28;20045;-69
2024/01/02 07:32:15;;;;;;;23.30;5.20;;;;;;;6.80;100.00;97710.81;5010738;28;20076;-68
2024/01/02 07:34:42;;;;;;;18.60;4.00;;;;;;;7.02;100.00;97706.69;5017866;28;20049;-68
2024/01/02 07:37:10;;;;;;;21.83;4.97;;;;;;;6.89;100.00;97704.13;5020766;28;20487;-68
2024/01/02 07:39:37;;;;;;;24.13;3.80;;;;;;;6.88;100.00;97712.88;5012707;28;20049;-69
2024/01/02 07:42:05;;;;;;;20.00;4.82;;;;;;;6.89;100.00;97714.53;5018844;28;20042;-68
2024/01/02 07:44:32;;;;;;;22.08;4.65;;;;;;;6.89;100.00;97696.34;5017732;28;20493;-68
2024/01/02 07:47:00;;;;;;;22.08;5.28;;;;;;;7.03;100.00;97696.19;5022546;28;20049;-68
2024/01/02 07:49:27;;;;;;;20.23;4.05;;;;;;;6.99;100.00;97704.31;5024195;28;20068;-68
2024/01/02 07:51:54;;;;;;;22.13;4.63;;;;;;;7.01;100.00;97707.63;5005988;28;20065;-68
2024/01/02 07:54:21;;;;;;;21.25;3.85;;;;;;;7.08;100.00;97710.63;5010482;28;20443;-68
2024/01/02 07:56:48;;;;;;;24.90;4.32;;;;;;;6.91;100.00;97711.84;5019548;28;20143;-68
2024/01/02 07:59:19;;;;;;;19.02;3.33;;;;;;;7.00;100.00;97719.81;5005233;28;20137;-68
2024/01/02 08:01:47;;;;;;;16.67;4.38;;;;;;;7.15;100.00;97711.84;5005678;28;20133;-68
2024/01/02 08:04:14;;;;;;;19.70;4.35;;;;;;;6.98;100.00;97687.06;5015653;28;20060;-68
2024/01/02 08:06:41;;;;;;;20.88;4.07;;;;;;;7.01;100.00;97708.47;5030279;28;20076;-68
2024/01/02 08:09:08;;;;;;;23.30;3.53;;;;;;;7.03;100.00;97706.59;5012116;28;20058;-68
2024/01/02 08:11:35;;;;;;;23.23;5.53;;;;;;;6.93;100.00;97717.75;5019049;28;20061;-69
2024/01/02 08:14:02;;;;;;;18.05;3.78;;;;;;;7.02;100.00;97715.31;5013803;28;20128;-68
2024/01/02 08:16:29;;;;;;;16.80;3.00;;;;;;;6.81;100.00;97711.66;5020522;28;20053;-69
2024/01/02 08:18:56;;;;;;;16.05;3.63;;;;;;;6.89;100.00;97713.69;5010553;28;20407;-69
2024/01/02 08:21:23;;;;;;;18.70;3.10;;;;;;;6.65;100.00;97714.50;5023216;28;20089;-69
2024/01/02 08:23:50;;;;;;;17.08;2.78;;;;;;;6.58;100.00;97711.47;5016458;28;20095;-69
2024/01/02 08:26:17;;;;;;;13.40;2.85;;;;;;;6.49;100.00;97706.94;5023630;28;20128;-69
2024/01/02 08:28:44;;;;;;;18.13;3.92;;;;;;;6.68;100.00;97690.88;4991445;28;20054;-68
2024/01/02 08:31:10;;;;;;;16.35;2.60;;;;;;;6.62;100.00;97709.50;5019819;28;20049;-67
2024/01/02 08:33:37;;;;;;;18.83;3.25;;;;;;;6.47;100.00;97698.41;5027145;28;20118;-68
2024/01/02 08:36:06;;;;;;;17.15;4.55;;;;;;;6.32;100.00;97673.47;5021838;28;20049;-69
2024/01/02 08:38:33;;;;;;;11.88;2.92;;;;;;;6.62;100.00;97693.91;4998176;28;20540;-69
2024/01/02 08:41:00;;;;;;;23.45;3.65;;;;;;;6.60;100.00;97685.38;5014890;28;20137;-69
2024/01/02 08:43:26;;;;;;;22.90;2.63;;;;;;;6.62;100.00;97699.94;5028628;28;20053;-69
2024/01/02 08:45:53;;;;;;;13.68;2.95;;;;;;;6.71;100.00;97688.06;5029890;28;20054;-68
2024/01/02 08:48:19;;;;;;;17.83;3.25;;;;;;;6.63;100.00;97690.38;5011367;28;20058;-69
2024/01/02 08:50:46;;;;;;;21.45;4.13;;;;;;;6.54;100.00;97658.06;5009332;28;20050;-69
2024/01/02 08:53:13;;;;;;;16.23;3.05;;;;;;;6.79;100.00;97664.13;5001535;28;20137;-69
2024/01/02 08:55:40;;;;;;;19.55;3.70;;;;;;;6.73;100.00;97648.94;5005354;28;20562;-69
2024/01/02 08:58:07;;;;;;;18.15;3.95;;;;;;;6.84;100.00;97642.03;5009884;28;20128;-69
2024/01/02 09:00:34;;;;;;;23.92;5.00;;;;;;;6.92;100.00;97649.28;5015474;28;20052;-68
2024/01/02 09:03:02;;;;;;;18.80;3.85;;;;;;;6.96;100.00;97645.53;5008563;28;20050;-68
2024/01/02 09:05:29;;;;;;;26.15;5.63;;;;;;;7.00;100.00;97622.75;5002784;28;20415;-68
2024/01/02 09:07:56;;;;;;;20.63;3.95;;;;;;;6.79;100.00;97631.13;4995571;28;20046;-69
2024/01/02 09:10:23;;;;;;;32.15;4.25;;;;;;;7.05;100.00;97628.44;5011902;28;20052;-68
2024/01/02 09:12:49;;;;;;;25.35;4.38;;;;;;;6.88;100.00;97608.84;5006018;28;20053;-68
2024/01/02 09:15:18;;;;;;;20.05;3.72;;;;;;;7.07;100.00;97612.72;5004398;28;20503;-68
2024/01/02 09:17:45;;;;;;;28.05;4.00;;;;;;;6.61;100.00;97604.69;5011593;28;20050;-68
2024/01/02 09:20:12;;;;;;;15.82;4.72;;;;;;;6.67;100.00;97619.00;5006983;28;20434;-68
2024/01/02 09:22:39;;;;;;;16.10;3.00;;;;;;;6.63;100.00;97594.19;4995101;28;20057;-68
2024/01/02 09:25:08;;;;;;;16.98;3.25;;;;;;;6.60;100.00;97597.81;4993907;28;20492;-68
2024/01/02 09:27:35;;;;;;;19.63;4.55;;;;;;;6.74;100.00;97596.81;5006798;28;20050;-68
2024/01/02 09:30:04;;;;;;;15.38;3.33;;;;;;;6.68;100.00;97581.69;5009360;28;20073;-69
2024/01/02 09:32:32;;;;;;;15.82;3.63;;;;;;;6.86;100.00;97578.69;5007957;28;20046;-69
2024/01/02 09:34:58;;;;;;;14.02;3.58;;;;;;;6.96;100.00;97590.09;5003967;28;20060;-69
2024/01/02 09:37:26;;;;;;;20.90;3.95;;;;;;;6.97;100.00;97563.13;5005721;28;20081;-68
2024/01/02 09:39:53;;;;;;;18.60;3.80;;;;;;;6.87;100.00;97565.59;5001578;28;20385;-68
2024/01/02 09:42:26;;;;;;;14.85;4.05;;;;;;;7.07;100.00;97582.31;5011552;28;20527;-69
2024/01/02 09:45:03;;;;;;;13.88;3.05;;;;;;;6.92;100.00;97566.06;5005014;28;20385;-68
2024/01/02 09:48:11;;;;;;;22.15;3.78;;;;;;;7.16;100.00;97563.44;5007507;28;20050;-69
2024/01/02 09:51:02;;;;;;;22.98;5.47;;;;;;;7.30;100.00;97552.00;5008292;28;20076;-69
2024/01/02 09:53:44;;;;;;;21.27;3.33;;;;;;;7.34;100.00;97556.00;4993501;28;20061;-68
2024/01/02 09:56:27;;;;;;;22.48;3.60;;;;;;;7.22;100.00;97536.97;5017478;28;20729;-69
2024/01/02 09:59:02;;;;;;;20.42;3.67;;;;;;;7.32;100.00;97534.47;4997148;28;20370;-69
2024/01/02 10:01:49;;;;;;;24.58;4.78;;;;;;;7.37;100.00;97532.38;5009478;28;20396;-68
2024/01/02 10:04:54;;;;;;;34.33;5.93;;;;;;;7.49;100.00;97533.22;5002179;28;20310;-69
2024/01/02 10:07:50;;;;;;;18.92;5.20;;;;;;;7.47;100.00;97518.66;4998906;28;20103;-69
2024/01/02 10:10:26;;;;;;;17.50;3.80;;;;;;;7.46;100.00;97506.59;5009320;28;20491;-69
2024/01/02 10:13:22;;;;;;;25.88;4.53;;;;;;;7.21;100.00;97511.06;5007852;28;20053;-70
2024/01/02 10:16:07;;;;;;;20.95;4.03;;;;;;;7.27;100.00;97513.19;4981072;28;20468;-68
2024/01/02 10:18:37;;;;;;;19.02;3.65;;;;;;;7.30;100.00;97525.97;4986031;28;20569;-68
2024/01/02 10:21:38;;;;;;;22.30;4.10;;;;;;;7.32;100.00;97492.03;5004346;28;20045;-68
2024/01/02 10:24:24;;;;;;;19.67;3.38;;;;;;;7.28;100.00;97481.03;5004553;28;20053;-69
2024/01/02 10:27:36;;;;;;;14.90;3.10;;;;;;;7.43;100.00;97486.00;4993488;28;20391;-69
2024/01/02 10:30:06;;;;;;;24.48;3.72;;;;;;;7.30;100.00;97481.72;4993026;28;20494;-69
2024/01/02 10:33:04;;;;;;;19.42;4.68;;;;;;;7.46;100.00;97483.16;5012463;28;20112;-68
2024/01/02 10:36:00;;;;;;;18.85;5.00;;;;;;;7.47;100.00;97496.06;5007099;28;20054;-68
2024/01/02 10:38:34;;;;;;;26.92;4.80;;;;;;;7.51;100.00;97494.06;4996414;28;20080;-68
2024/01/02 10:41:21;;;;;;;14.70;3.13;;;;;;;7.24;100.00;97482.19;5002871;28;20050;-69
2024/01/02 10:44:23;;;;;;;20.95;4.40;;;;;;;7.34;100.00;97490.13;5006728;28;20049;-69
2024/01/02 10:47:05;;;;;;;21.80;4.60;;;;;;;7.26;100.00;97463.84;4966595;28;20438;-69
2024/01/02 10:49:58;;;;;;;23.13;3.90;;;;;;;7.16;100.00;97474.13;5006089;28;20050;-69
2024/01/02 10:52:34;;;;;;;18.63;3.60;;;;;;;7.04;100.00;97492.31;4982997;28;20957;-68
2024/01/02 10:55:23;;;;;;;22.95;3.65;;;;;;;7.12;100.00;97483.09;5006702;28;20435;-68
2024/01/02 10:58:00;;;;;;;14.10;3.30;;;;;;;7.18;100.00;97454.03;5001772;28;20046;-68
2024/01/02 11:00:38;;;;;;;22.13;4.18;;;;;;;7.25;100.00;97464.81;5002855;28;20486;-68
2024/01/02 11:03:10;;;;;;;19.73;4.13;;;;;;;7.31;100.00;97459.97;5008751;28;20128;-69
2024/01/02 11:05:42;;;;;;;21.48;4.43;;;;;;;7.31;100.00;97459.13;4996372;28;20053;-69
2024/01/02 11:08:45;;;;;;;18.02;4.03;;;;;;;7.42;100.00;97448.72;4990445;28;20072;-69
2024/01/02 11:11:13;;;;;;;17.30;4.47;;;;;;;7.34;100.00;97444.09;4999796;28;20042;-69
2024/01/02 11:13:42;;;;;;;19.80;3.78;;;;;;;7.16;100.00;97422.94;4997331;28;20049;-69
2024/01/02 11:16:28;;;;;;;21.50;5.18;;;;;;;7.34;100.00;97431.09;4998916;28;20065;-69
2024/01/02 11:18:59;;;;;;;19.88;4.47;;;;;;;7.51;100.00;97431.56;5000346;28;20053;-69
2024/01/02 11:21:44;;;;;;;23.55;4.43;;;;;;;7.33;100.00;97431.19;4999541;28;20079;-69
2024/01/02 11:24:13;;;;;;;15.65;3.78;;;;;;;7.46;100.00;97428.50;4983709;28;20348;-69
2024/01/02 11:26:43;;;;;;;19.88;4.15;;;;;;;7.53;100.00;97417.47;4999682;28;20483;-69
2024/01/02 11:29:22;;;;;;;24.52;6.75;;;;;;;7.46;100.00;97431.91;5002142;28;20054;-69
2024/01/02 11:31:54;;;;;;;18.55;3.80;;;;;;;7.46;100.00;97421.50;4994544;28;20049;-69
2024/01/02 11:34:49;;;;;;;28.95;3.95;;;;;;;7.46;100.00;97408.50;5002811;28;20771;-69